Time;durP1;ratioP1;P1;durP2;ratioP2;P2;SDS_P1;SDS_P2;PMS_P1;PMS_P2;Temp;Humidity;BMP_temperature;BMP_pressure;BME280_temperature;BME280_humidity;BME280_pressure;Samples;Min_cycle;Max_cycle;Signal;HPM_P1;HPM_P2
2022/09/09 00:00:27;;;;;;;4.17;1.40;;;;;;;19.16;75.41;100100.81;4987326;28;21118;-66
2022/09/09 00:03:03;;;;;;;3.93;1.30;;;;;;;19.13;75.42;100093.19;4989654;28;20221;-66
2022/09/09 00:05:39;;;;;;;5.40;1.23;;;;;;;19.15;74.92;100096.50;4987723;28;20670;-67
2022/09/09 00:08:16;;;;;;;6.80;1.13;;;;;;;19.14;74.99;100096.69;4985350;28;20201;-66
2022/09/09 00:10:43;;;;;;;5.20;0.80;;;;;;;19.15;74.76;100091.13;4987689;28;20215;-66
2022/09/09 00:13:20;;;;;;;4.80;1.20;;;;;;;19.14;74.79;100092.16;4988019;28;20210;-66
2022/09/09 00:15:58;;;;;;;2.10;0.73;;;;;;;19.11;75.11;100095.25;4986757;28;20209;-66
2022/09/09 00:18:30;;;;;;;3.17;1.00;;;;;;;19.13;74.96;100093.19;4982858;28;20206;-66
2022/09/09 00:21:05;;;;;;;3.90;1.27;;;;;;;19.07;75.02;100090.53;4986658;28;20776;-66
2022/09/09 00:23:36;;;;;;;5.17;1.07;;;;;;;19.11;75.24;100091.72;4989233;28;20210;-66
2022/09/09 00:26:10;;;;;;;3.13;0.90;;;;;;;19.14;74.92;100081.41;4991117;28;20218;-66
2022/09/09 00:28:46;;;;;;;6.07;0.97;;;;;;;19.10;75.46;100087.38;4999492;28;20634;-66
2022/09/09 00:31:19;;;;;;;6.03;1.27;;;;;;;19.06;75.72;100087.00;4991503;28;20288;-66
2022/09/09 00:33:50;;;;;;;7.13;1.50;;;;;;;19.06;75.56;100078.94;4991676;28;20206;-66
2022/09/09 00:36:22;;;;;;;3.83;1.50;;;;;;;19.03;75.94;100079.38;4992378;28;20362;-66
2022/09/09 00:38:53;;;;;;;3.03;1.20;;;;;;;19.07;76.25;100079.78;4992561;28;20221;-66
2022/09/09 00:41:26;;;;;;;4.87;1.70;;;;;;;19.09;75.87;100083.06;4991812;28;20273;-66
2022/09/09 00:44:03;;;;;;;4.53;1.23;;;;;;;19.17;75.63;100080.94;4991567;28;20210;-66
2022/09/09 00:46:56;;;;;;;7.10;1.73;;;;;;;19.14;75.61;100083.25;4990299;28;20209;-66
2022/09/09 00:49:35;;;;;;;5.07;1.70;;;;;;;19.06;76.22;100070.06;4990165;28;20275;-66
2022/09/09 00:52:19;;;;;;;5.53;1.63;;;;;;;19.10;76.35;100082.84;4992367;28;20743;-66
2022/09/09 00:54:57;;;;;;;7.00;1.50;;;;;;;19.11;76.28;100084.50;4984726;28;20862;-66
2022/09/09 00:57:29;;;;;;;5.53;1.20;;;;;;;19.12;75.98;100091.53;4991672;28;20217;-66
2022/09/09 01:00:05;;;;;;;7.00;1.20;;;;;;;19.17;75.53;100089.00;4991898;28;20257;-66
2022/09/09 01:02:39;;;;;;;5.50;1.47;;;;;;;19.14;76.05;100081.41;4990460;28;20202;-66
2022/09/09 01:05:14;;;;;;;3.43;1.00;;;;;;;19.07;75.86;100074.41;4990417;28;20204;-66
2022/09/09 01:07:48;;;;;;;3.60;0.90;;;;;;;19.02;76.25;100069.66;4982762;28;20221;-66
2022/09/09 01:10:27;;;;;;;6.17;1.37;;;;;;;18.95;76.53;100073.41;4990431;28;20260;-66
2022/09/09 01:12:59;;;;;;;5.90;1.33;;;;;;;19.07;76.22;100069.03;4979717;28;20308;-66
2022/09/09 01:15:32;;;;;;;2.50;0.80;;;;;;;19.23;75.27;100073.91;4990073;28;20248;-66
2022/09/09 01:18:05;;;;;;;7.43;1.67;;;;;;;19.29;74.44;100074.91;4994915;28;20217;-66
2022/09/09 01:20:41;;;;;;;5.97;1.10;;;;;;;19.39;74.17;100070.72;4989971;28;20248;-66
2022/09/09 01:23:42;;;;;;;6.27;1.20;;;;;;;19.47;73.50;100078.56;4989926;28;20238;-66
2022/09/09 01:26:26;;;;;;;3.40;0.97;;;;;;;19.46;73.09;100070.69;4990321;28;20217;-66
2022/09/09 01:28:54;;;;;;;5.40;1.10;;;;;;;19.46;73.47;100082.25;4990236;28;20629;-67
2022/09/09 01:31:27;;;;;;;4.03;0.93;;;;;;;19.35;73.95;100080.25;4990326;28;20257;-67
2022/09/09 01:33:55;;;;;;;4.27;1.10;;;;;;;19.26;74.16;100086.09;4990339;28;20232;-66
2022/09/09 01:36:30;;;;;;;2.80;0.80;;;;;;;19.25;74.58;100084.47;4990575;28;20209;-66
2022/09/09 01:38:58;;;;;;;4.40;1.03;;;;;;;19.17;74.24;100080.94;4989215;28;20276;-66
2022/09/09 01:41:28;;;;;;;2.40;0.70;;;;;;;19.25;73.71;100084.47;4988891;28;20218;-66
2022/09/09 01:43:56;;;;;;;5.03;1.10;;;;;;;19.29;73.27;100074.91;4990445;28;20217;-66
2022/09/09 01:46:24;;;;;;;5.83;1.30;;;;;;;19.35;73.48;100074.88;4991183;28;20210;-66
2022/09/09 01:48:53;;;;;;;5.60;1.03;;;;;;;19.49;72.28;100076.50;4991007;28;20297;-66
2022/09/09 01:51:21;;;;;;;7.73;1.17;;;;;;;19.55;71.79;100069.41;4990347;28;20578;-66
2022/09/09 01:53:48;;;;;;;5.80;1.10;;;;;;;19.56;71.76;100071.06;4989957;28;20209;-66
2022/09/09 01:56:26;;;;;;;9.00;1.20;;;;;;;19.66;71.03;100073.28;4989686;28;20273;-66
2022/09/09 01:59:07;;;;;;;2.83;0.87;;;;;;;19.65;70.63;100071.63;4990278;28;20237;-66
2022/09/09 02:01:57;;;;;;;6.07;0.90;;;;;;;19.51;70.82;100069.03;4982912;28;20206;-67
2022/09/09 02:04:37;;;;;;;2.97;0.90;;;;;;;19.44;71.02;100072.75;4988796;28;20241;-67
2022/09/09 02:07:15;;;;;;;5.30;1.00;;;;;;;19.39;71.29;100075.28;4990264;28;20217;-67
2022/09/09 02:09:48;;;;;;;3.47;1.00;;;;;;;19.31;71.76;100073.66;4990799;28;20206;-67
2022/09/09 02:12:19;;;;;;;2.50;0.60;;;;;;;19.33;71.92;100081.53;4989117;28;20237;-66
2022/09/09 02:14:53;;;;;;;4.33;1.43;;;;;;;19.43;71.52;100088.09;4988638;28;20213;-66
2022/09/09 02:17:27;;;;;;;4.27;1.10;;;;;;;19.35;71.71;100095.59;4988984;28;20582;-66
2022/09/09 02:20:00;;;;;;;1.53;0.70;;;;;;;19.31;71.68;100092.47;4990183;28;20214;-66
2022/09/09 02:22:29;;;;;;;3.00;0.93;;;;;;;19.26;72.17;100092.28;4989611;28;20202;-66
2022/09/09 02:25:00;;;;;;;3.30;1.03;;;;;;;19.23;72.09;100091.91;4986465;28;20243;-66
2022/09/09 02:27:28;;;;;;;4.23;0.87;;;;;;;19.21;72.84;100089.41;4989670;28;20217;-65
2022/09/09 02:30:01;;;;;;;4.87;0.97;;;;;;;19.33;71.90;100084.22;4988864;28;20719;-66
2022/09/09 02:32:31;;;;;;;5.87;1.00;;;;;;;19.29;72.26;100085.66;4989321;28;20246;-67
2022/09/09 02:35:06;;;;;;;3.23;0.80;;;;;;;19.29;72.55;100091.88;4985667;28;20305;-67
2022/09/09 02:37:38;;;;;;;6.17;0.90;;;;;;;19.26;72.75;100089.59;4990279;28;20205;-66
2022/09/09 02:40:10;;;;;;;2.10;0.90;;;;;;;19.27;72.58;100083.19;4989354;28;20210;-65
2022/09/09 02:42:40;;;;;;;9.63;1.40;;;;;;;19.16;73.11;100076.63;4990032;28;20214;-66
2022/09/09 02:45:13;;;;;;;2.60;0.93;;;;;;;19.18;73.40;100073.72;4989324;28;20202;-67
2022/09/09 02:47:48;;;;;;;8.37;1.17;;;;;;;19.09;73.80;100073.13;4983220;28;20210;-66
2022/09/09 02:50:20;;;;;;;3.97;1.03;;;;;;;19.06;73.71;100070.88;4984222;28;20214;-66
2022/09/09 02:53:02;;;;;;;5.97;1.20;;;;;;;18.99;73.89;100053.97;4987906;28;20226;-65
2022/09/09 02:55:39;;;;;;;5.80;1.40;;;;;;;18.97;73.85;100065.97;4985306;28;20328;-65
2022/09/09 02:58:11;;;;;;;4.93;0.83;;;;;;;19.02;73.83;100061.59;4989669;28;20228;-66
2022/09/09 03:00:40;;;;;;;4.07;0.73;;;;;;;18.99;73.99;100069.25;4988284;28;20575;-66
2022/09/09 03:03:09;;;;;;;4.10;1.00;;;;;;;19.00;73.93;100066.34;4988056;28;20210;-66
2022/09/09 03:05:38;;;;;;;2.57;0.83;;;;;;;18.97;74.13;100061.41;4989884;28;20210;-66
2022/09/09 03:08:06;;;;;;;3.70;1.40;;;;;;;18.96;74.09;100069.69;4989133;28;20270;-67
2022/09/09 03:10:34;;;;;;;6.37;1.00;;;;;;;18.99;74.03;100074.63;4988984;28;20245;-66
2022/09/09 03:13:04;;;;;;;6.13;1.00;;;;;;;18.98;74.19;100063.06;4988673;28;20305;-66
2022/09/09 03:15:33;;;;;;;6.60;1.10;;;;;;;19.03;73.87;100065.94;4989049;28;20614;-66
2022/09/09 03:18:02;;;;;;;2.77;0.87;;;;;;;19.01;73.90;100070.69;4989664;28;20818;-66
2022/09/09 03:20:31;;;;;;;2.57;0.90;;;;;;;19.00;74.04;100074.41;4989441;28;20249;-66
2022/09/09 03:23:01;;;;;;;5.80;1.10;;;;;;;18.99;74.28;100074.63;5001804;28;20338;-65
2022/09/09 03:25:29;;;;;;;2.30;0.60;;;;;;;18.91;74.68;100089.09;4988661;28;20277;-66
2022/09/09 03:27:57;;;;;;;3.27;0.90;;;;;;;18.89;74.61;100076.94;4988854;28;20202;-66
2022/09/09 03:30:25;;;;;;;3.43;1.07;;;;;;;18.89;74.68;100083.13;4987892;28;20644;-66
2022/09/09 03:32:53;;;;;;;4.90;1.40;;;;;;;18.88;74.60;100084.19;4988804;28;20250;-66
2022/09/09 03:35:22;;;;;;;4.10;1.10;;;;;;;18.84;74.78;100088.31;4986990;28;20620;-67
2022/09/09 03:37:49;;;;;;;4.30;0.90;;;;;;;18.89;74.66;100088.50;4988254;28;20210;-66
2022/09/09 03:40:17;;;;;;;3.87;0.90;;;;;;;18.96;74.43;100091.16;4987293;28;20217;-66
2022/09/09 03:42:45;;;;;;;4.70;1.27;;;;;;;19.01;73.71;100089.50;4990143;28;20558;-66
2022/09/09 03:45:13;;;;;;;2.83;1.10;;;;;;;19.09;73.55;100080.38;4991724;28;20210;-66
2022/09/09 03:47:41;;;;;;;4.83;0.87;;;;;;;19.16;73.40;100078.50;4988496;28;20221;-66
2022/09/09 03:50:10;;;;;;;3.87;1.13;;;;;;;19.11;73.59;100079.13;4988340;28;20210;-66
2022/09/09 03:52:42;;;;;;;6.47;1.20;;;;;;;19.02;74.32;100077.72;4987834;28;20210;-66
2022/09/09 03:55:09;;;;;;;5.80;1.17;;;;;;;18.95;74.68;100076.91;4988249;28;20474;-66
2022/09/09 03:57:37;;;;;;;8.17;2.13;;;;;;;18.92;74.73;100080.00;4989143;28;20202;-66
2022/09/09 04:00:06;;;;;;;13.77;1.60;;;;;;;18.97;74.46;100082.91;4990848;28;20213;-66
2022/09/09 04:02:34;;;;;;;4.07;1.07;;;;;;;18.89;75.05;100079.63;4993377;28;20268;-66
2022/09/09 04:05:02;;;;;;;5.70;1.37;;;;;;;18.78;76.05;100081.09;4991815;28;20884;-66
2022/09/09 04:07:29;;;;;;;7.70;1.37;;;;;;;18.78;75.82;100067.66;4992408;28;20651;-65
2022/09/09 04:09:59;;;;;;;4.67;1.73;;;;;;;18.68;76.82;100073.47;4991704;28;20631;-65
2022/09/09 04:12:27;;;;;;;3.30;1.10;;;;;;;18.67;76.98;100076.38;4993234;28;20210;-65
2022/09/09 04:14:54;;;;;;;4.93;1.37;;;;;;;18.68;77.04;100073.47;4986805;28;20768;-66
2022/09/09 04:17:22;;;;;;;3.80;1.10;;;;;;;18.65;77.06;100068.50;4992058;28;20261;-66
2022/09/09 04:19:49;;;;;;;6.53;1.77;;;;;;;18.65;77.65;100081.94;4991697;28;20592;-67
2022/09/09 04:22:17;;;;;;;4.43;1.40;;;;;;;18.69;77.18;100082.34;4990596;28;20658;-66
2022/09/09 04:24:45;;;;;;;6.23;1.30;;;;;;;18.71;77.05;100088.34;4992439;28;20218;-66
2022/09/09 04:27:16;;;;;;;3.57;0.97;;;;;;;18.64;77.58;100082.19;4992061;28;20635;-67
2022/09/09 04:29:44;;;;;;;5.97;1.40;;;;;;;18.59;78.02;100080.09;4992270;28;20265;-66
2022/09/09 04:32:11;;;;;;;8.60;2.10;;;;;;;18.61;78.37;100085.28;4990734;28;20246;-66
2022/09/09 04:34:41;;;;;;;4.40;1.30;;;;;;;18.67;78.00;100092.47;4991247;28;20241;-67
2022/09/09 04:37:08;;;;;;;4.77;1.63;;;;;;;18.61;78.28;100093.31;4992206;28;20210;-67
2022/09/09 04:39:36;;;;;;;4.70;0.93;;;;;;;18.64;78.41;100098.28;4991246;28;20214;-66
2022/09/09 04:42:04;;;;;;;4.23;1.13;;;;;;;18.60;78.44;100100.56;4991820;28;20237;-67
2022/09/09 04:44:33;;;;;;;4.77;1.10;;;;;;;18.56;78.89;100101.97;4991192;28;20210;-66
2022/09/09 04:47:01;;;;;;;5.57;1.20;;;;;;;18.49;79.65;100108.38;4994527;28;20211;-66
2022/09/09 04:49:30;;;;;;;4.13;0.90;;;;;;;18.46;79.61;100106.97;4991472;28;20210;-66
2022/09/09 04:51:58;;;;;;;6.60;1.43;;;;;;;18.45;80.11;100115.22;4988953;28;20225;-66
2022/09/09 04:54:25;;;;;;;6.90;1.40;;;;;;;18.39;80.57;100112.31;4992661;28;20238;-66
2022/09/09 04:56:54;;;;;;;5.67;1.53;;;;;;;18.40;80.08;100110.44;4991366;28;20256;-66
2022/09/09 04:59:22;;;;;;;4.13;1.20;;;;;;;18.39;80.24;100115.00;4991426;28;20214;-66
2022/09/09 05:01:51;;;;;;;3.10;1.07;;;;;;;18.34;80.68;100109.44;4990244;28;20262;-66
2022/09/09 05:04:19;;;;;;;4.87;1.20;;;;;;;18.40;80.54;100113.13;4992173;28;20205;-65
2022/09/09 05:06:46;;;;;;;5.83;1.13;;;;;;;18.43;80.07;100110.88;4991950;28;20594;-67
2022/09/09 05:09:14;;;;;;;8.23;1.03;;;;;;;18.45;79.94;100120.59;4992380;28;20225;-67
2022/09/09 05:11:42;;;;;;;3.27;0.93;;;;;;;18.44;80.33;100119.75;4990503;28;20210;-66
2022/09/09 05:14:11;;;;;;;5.77;1.00;;;;;;;18.53;79.69;100126.56;4990676;28;20289;-67
2022/09/09 05:16:39;;;;;;;3.47;1.10;;;;;;;18.56;79.58;100126.13;4989973;28;20570;-65
2022/09/09 05:19:08;;;;;;;3.67;1.17;;;;;;;18.50;79.83;100120.78;4990350;28;20214;-67
2022/09/09 05:21:36;;;;;;;5.17;1.00;;;;;;;18.48;79.76;100128.19;4990855;28;20206;-66
2022/09/09 05:24:04;;;;;;;6.10;1.10;;;;;;;18.43;79.57;100126.97;4990617;28;20198;-65
2022/09/09 05:26:32;;;;;;;5.77;1.10;;;;;;;18.42;79.95;100125.31;4990982;28;20206;-67
2022/09/09 05:29:01;;;;;;;5.07;1.00;;;;;;;18.39;79.84;100128.41;4991165;28;20214;-66
2022/09/09 05:31:31;;;;;;;4.93;1.33;;;;;;;18.36;80.18;100134.22;4990569;28;20670;-66
2022/09/09 05:33:59;;;;;;;8.27;1.10;;;;;;;18.41;79.45;100131.72;4998452;28;20229;-67
2022/09/09 05:36:27;;;;;;;7.73;1.30;;;;;;;18.45;79.52;100134.00;4996457;28;20210;-66
2022/09/09 05:38:55;;;;;;;7.80;1.67;;;;;;;18.46;79.51;100143.72;4996036;28;20213;-66
2022/09/09 05:41:23;;;;;;;7.40;1.20;;;;;;;18.46;79.23;100138.34;4996786;28;20265;-66
2022/09/09 05:43:51;;;;;;;3.77;1.07;;;;;;;18.47;79.09;100145.38;4978421;28;20218;-66
2022/09/09 05:46:21;;;;;;;4.33;1.10;;;;;;;18.51;78.60;100146.59;4995196;28;20218;-66
2022/09/09 05:48:51;;;;;;;7.40;1.30;;;;;;;18.54;78.33;100143.50;4998545;28;20210;-67
2022/09/09 05:51:21;;;;;;;2.80;1.10;;;;;;;18.57;78.67;100146.59;4996780;28;20210;-65
2022/09/09 05:53:51;;;;;;;9.47;1.17;;;;;;;18.61;77.93;100144.34;4995019;28;20807;-64
2022/09/09 05:56:21;;;;;;;4.50;0.97;;;;;;;18.62;77.40;100146.00;4991834;28;20285;-66
2022/09/09 05:58:50;;;;;;;5.37;0.70;;;;;;;18.64;77.64;100149.31;4990705;28;20210;-67
2022/09/09 06:01:20;;;;;;;4.00;0.97;;;;;;;18.63;77.09;100151.16;4995480;28;20217;-65
2022/09/09 06:03:49;;;;;;;8.53;1.13;;;;;;;18.62;77.30;100154.06;4996097;28;20217;-65
2022/09/09 06:06:20;;;;;;;7.83;1.67;;;;;;;18.59;77.14;100149.09;4990636;28;20772;-66
2022/09/09 06:08:51;;;;;;;3.53;0.90;;;;;;;18.59;77.65;100152.59;4990528;28;20214;-67
2022/09/09 06:11:21;;;;;;;6.67;1.10;;;;;;;18.63;76.99;100151.16;5001758;28;20257;-66
2022/09/09 06:13:51;;;;;;;7.60;1.00;;;;;;;18.70;76.86;100149.28;4992607;28;20210;-66
2022/09/09 06:16:20;;;;;;;4.90;1.07;;;;;;;18.78;77.06;100159.00;4995098;28;20218;-66
2022/09/09 06:18:48;;;;;;;11.50;1.30;;;;;;;18.94;75.98;100163.91;4995046;28;20248;-66
2022/09/09 06:21:18;;;;;;;5.27;1.00;;;;;;;19.16;75.27;100159.13;4989811;28;20298;-65
2022/09/09 06:23:46;;;;;;;7.27;1.83;;;;;;;19.21;75.05;100153.94;4989940;28;20221;-66
2022/09/09 06:26:17;;;;;;;4.67;0.90;;;;;;;19.25;74.63;100160.56;4994590;28;20970;-66
2022/09/09 06:28:47;;;;;;;6.03;1.10;;;;;;;19.36;74.10;100156.34;4997916;28;20199;-65
2022/09/09 06:31:17;;;;;;;6.00;1.20;;;;;;;19.35;73.92;100158.22;4987664;28;20210;-65
2022/09/09 06:33:45;;;;;;;6.03;1.20;;;;;;;19.37;73.97;100158.84;4994336;28;20209;-66
2022/09/09 06:36:14;;;;;;;5.70;1.57;;;;;;;19.43;73.47;100149.94;4987817;28;20230;-66
2022/09/09 06:38:42;;;;;;;5.43;1.20;;;;;;;19.45;73.68;100157.75;4990536;28;20236;-66
2022/09/09 06:41:12;;;;;;;5.03;1.53;;;;;;;19.49;73.24;100164.41;4989142;28;20359;-66
2022/09/09 06:43:41;;;;;;;7.37;1.33;;;;;;;19.56;72.93;100151.75;4989712;28;20428;-66
2022/09/09 06:46:13;;;;;;;5.27;1.23;;;;;;;19.59;72.76;100151.34;4989041;28;20214;-66
2022/09/09 06:48:41;;;;;;;6.13;1.00;;;;;;;19.64;72.42;100148.00;4988995;28;20210;-66
2022/09/09 06:51:11;;;;;;;5.73;1.30;;;;;;;19.64;72.54;100140.75;4989913;28;20214;-66
2022/09/09 06:53:40;;;;;;;3.83;0.97;;;;;;;19.66;72.64;100152.13;4989332;28;20214;-66
2022/09/09 06:56:21;;;;;;;3.97;1.00;;;;;;;19.70;72.77;100147.94;4990227;28;20623;-67
2022/09/09 06:58:51;;;;;;;3.93;0.90;;;;;;;19.68;72.58;100143.84;4989242;28;20698;-66
2022/09/09 07:01:20;;;;;;;4.23;0.97;;;;;;;19.62;73.26;100150.06;4988530;28;20218;-66
2022/09/09 07:03:50;;;;;;;5.27;1.10;;;;;;;19.60;73.73;100146.78;4988805;28;20222;-67
2022/09/09 07:06:21;;;;;;;4.73;1.30;;;;;;;19.59;74.66;100151.34;4989479;28;20261;-66
2022/09/09 07:08:53;;;;;;;7.87;1.53;;;;;;;19.58;74.71;100159.63;4989176;28;20222;-66
2022/09/09 07:11:25;;;;;;;4.53;0.90;;;;;;;19.48;76.27;100158.19;4989885;28;20220;-67
2022/09/09 07:13:55;;;;;;;5.47;0.93;;;;;;;19.42;77.27;100144.75;4988384;28;20210;-67
2022/09/09 07:16:24;;;;;;;4.60;1.30;;;;;;;19.42;77.85;100155.53;4989563;28;20640;-66
2022/09/09 07:18:52;;;;;;;13.57;1.13;;;;;;;19.44;77.89;100159.63;4988848;28;20671;-66
2022/09/09 07:21:21;;;;;;;7.70;1.53;;;;;;;19.46;77.75;100162.94;4989141;28;20647;-66
2022/09/09 07:23:49;;;;;;;5.93;1.10;;;;;;;19.51;77.50;100165.03;4989276;28;20213;-66
2022/09/09 07:26:20;;;;;;;11.40;1.53;;;;;;;19.60;77.03;100155.69;4989495;28;20214;-66
2022/09/09 07:28:48;;;;;;;4.50;1.17;;;;;;;19.64;76.19;100166.81;4989357;28;20261;-66
2022/09/09 07:31:18;;;;;;;5.67;1.20;;;;;;;19.69;75.64;100162.47;4987702;28;20609;-66
2022/09/09 07:33:47;;;;;;;10.33;1.30;;;;;;;19.73;75.17;100169.03;4988783;28;20208;-66
2022/09/09 07:36:18;;;;;;;4.30;1.03;;;;;;;19.74;75.12;100168.00;4988535;28;20753;-66
2022/09/09 07:38:47;;;;;;;9.63;1.27;;;;;;;19.75;74.60;100169.66;4989597;28;20269;-66
2022/09/09 07:41:17;;;;;;;5.90;1.37;;;;;;;19.83;73.71;100169.41;4989130;28;20261;-66
2022/09/09 07:43:47;;;;;;;6.17;1.37;;;;;;;19.80;73.35;100167.13;4988664;28;20209;-65
2022/09/09 07:46:19;;;;;;;6.90;1.60;;;;;;;19.83;73.99;100172.09;4988577;28;20538;-67
2022/09/09 07:48:50;;;;;;;5.43;1.33;;;;;;;19.97;73.59;100169.31;4989869;28;20210;-66
2022/09/09 07:51:22;;;;;;;4.40;1.23;;;;;;;20.13;73.09;100168.81;4987866;28;20210;-67
2022/09/09 07:53:53;;;;;;;7.97;1.27;;;;;;;20.36;71.73;100173.66;4988730;28;20213;-66
2022/09/09 07:56:22;;;;;;;4.97;1.40;;;;;;;20.48;71.23;100172.75;4988540;28;20226;-67
2022/09/09 07:58:51;;;;;;;10.27;1.53;;;;;;;20.59;70.75;100166.59;4988183;28;20627;-67
2022/09/09 08:01:22;;;;;;;7.07;1.43;;;;;;;20.84;69.65;100171.19;4987852;28;20213;-67
2022/09/09 08:03:55;;;;;;;7.27;1.27;;;;;;;20.99;68.00;100168.94;4987722;28;20253;-66
2022/09/09 08:06:24;;;;;;;4.30;1.10;;;;;;;21.12;66.61;100174.19;4989421;28;20218;-66
2022/09/09 08:08:52;;;;;;;6.03;1.63;;;;;;;21.19;66.16;100175.00;4989137;28;20627;-65
2022/09/09 08:11:20;;;;;;;7.70;1.23;;;;;;;21.30;64.96;100171.53;4988398;28;20258;-66
2022/09/09 08:13:48;;;;;;;8.33;1.50;;;;;;;21.32;65.01;100180.22;4987687;28;20220;-66
2022/09/09 08:16:23;;;;;;;8.97;1.50;;;;;;;21.43;65.05;100183.22;4988873;28;20230;-67
2022/09/09 08:18:52;;;;;;;8.97;1.40;;;;;;;21.40;65.58;100182.59;4988777;28;20257;-66
2022/09/09 08:21:22;;;;;;;8.57;1.47;;;;;;;21.38;65.39;100179.31;4987908;28;20293;-67
2022/09/09 08:23:51;;;;;;;8.33;1.33;;;;;;;21.29;65.58;100183.34;4988208;28;20290;-66
2022/09/09 08:26:28;;;;;;;4.53;1.07;;;;;;;21.14;66.52;100192.84;4987311;28;20268;-68
2022/09/09 08:28:58;;;;;;;7.33;1.73;;;;;;;21.01;66.61;100189.25;4989212;28;20582;-66
2022/09/09 08:31:29;;;;;;;7.37;1.47;;;;;;;20.94;67.07;100195.72;4988854;28;20214;-66
2022/09/09 08:33:59;;;;;;;4.77;0.97;;;;;;;20.91;67.32;100198.88;4987747;28;20648;-67
2022/09/09 08:36:28;;;;;;;7.33;1.20;;;;;;;20.80;67.90;100197.72;4989422;28;20230;-66
2022/09/09 08:38:58;;;;;;;5.00;1.30;;;;;;;20.77;68.61;100197.34;4988723;28;20210;-66
2022/09/09 08:41:45;;;;;;;5.13;1.43;;;;;;;21.19;68.67;100207.34;4987948;28;20222;-66
2022/09/09 08:44:20;;;;;;;13.20;1.60;;;;;;;21.82;66.17;100200.75;4988403;28;20213;-66
2022/09/09 08:46:57;;;;;;;5.37;1.57;;;;;;;22.20;64.43;100193.19;4993133;28;20643;-66
2022/09/09 08:49:46;;;;;;;5.37;1.07;;;;;;;22.75;62.00;100192.97;4992807;28;20245;-66
2022/09/09 08:52:19;;;;;;;7.60;1.20;;;;;;;23.31;59.60;100178.81;4991190;28;20520;-66
2022/09/09 08:54:48;;;;;;;7.43;1.43;;;;;;;23.58;58.29;100179.97;4992893;28;20260;-66
2022/09/09 08:57:26;;;;;;;7.40;1.10;;;;;;;23.85;57.77;100184.81;4991972;28;20234;-66
2022/09/09 08:59:57;;;;;;;7.70;1.10;;;;;;;23.78;57.27;100184.13;4991842;28;20197;-66
2022/09/09 09:02:33;;;;;;;3.42;0.90;;;;;;;23.47;57.43;100194.34;4990620;28;20659;-66
2022/09/09 09:05:13;;;;;;;5.13;1.00;;;;;;;23.32;57.86;100195.88;4985489;28;20216;-66
2022/09/09 09:07:54;;;;;;;6.88;0.93;;;;;;;23.03;58.22;100203.09;4991941;28;20403;-66
2022/09/09 09:10:33;;;;;;;5.07;1.00;;;;;;;22.63;59.94;100198.34;4990764;28;20202;-66
2022/09/09 09:13:16;;;;;;;3.30;0.83;;;;;;;22.28;61.68;100194.75;4988056;28;20210;-66
2022/09/09 09:15:47;;;;;;;8.87;1.17;;;;;;;22.04;63.03;100188.47;4990931;28;20237;-66
2022/09/09 09:18:18;;;;;;;3.43;0.83;;;;;;;21.77;64.40;100191.50;4991247;28;20292;-66
2022/09/09 09:20:58;;;;;;;5.77;1.23;;;;;;;21.57;65.66;100201.69;4990422;28;20214;-66
2022/09/09 09:23:35;;;;;;;9.07;1.40;;;;;;;21.38;66.84;100200.88;4990051;28;20217;-66
2022/09/09 09:26:02;;;;;;;5.97;1.30;;;;;;;21.27;67.95;100203.53;4985947;28;20198;-66
2022/09/09 09:28:33;;;;;;;12.70;1.73;;;;;;;24.24;59.73;100191.25;4992197;28;20300;-66
2022/09/09 09:31:05;;;;;;;4.83;1.20;;;;;;;26.10;51.67;100194.16;4990691;28;20598;-66
2022/09/09 09:33:46;;;;;;;5.33;1.17;;;;;;;27.64;47.08;100185.75;4990489;28;20273;-66
2022/09/09 09:36:15;;;;;;;5.85;1.25;;;;;;;27.77;46.35;100173.56;4993904;28;20213;-66
2022/09/09 09:38:54;;;;;;;6.43;2.00;;;;;;;27.33;46.83;100182.06;4990632;28;20223;-66
2022/09/09 09:41:43;;;;;;;6.25;1.00;;;;;;;26.42;48.32;100173.28;4986622;28;20206;-66
2022/09/09 09:44:24;;;;;;;4.78;0.80;;;;;;;25.65;49.86;100173.56;4991309;28;20233;-66
2022/09/09 09:46:52;;;;;;;5.05;0.80;;;;;;;24.94;51.83;100172.63;4991376;28;20210;-67
2022/09/09 09:49:21;;;;;;;6.07;1.23;;;;;;;24.47;53.06;100174.84;4991031;28;20214;-66
2022/09/09 09:51:49;;;;;;;4.03;1.00;;;;;;;24.05;54.46;100168.13;4989074;28;20217;-66
2022/09/09 09:54:23;;;;;;;4.90;1.10;;;;;;;23.84;55.70;100169.63;4990012;28;20217;-66
2022/09/09 09:56:51;;;;;;;7.97;1.77;;;;;;;23.67;56.27;100174.16;4990078;28;20237;-66
2022/09/09 09:59:24;;;;;;;4.40;0.82;;;;;;;23.47;56.98;100175.38;4989222;28;20218;-66
2022/09/09 10:02:20;;;;;;;5.75;1.10;;;;;;;23.35;55.64;100177.28;4989859;28;20206;-67
2022/09/09 10:04:49;;;;;;;6.95;1.40;;;;;;;23.45;54.21;100171.28;4990550;28;20242;-66
2022/09/09 10:07:20;;;;;;;4.05;0.80;;;;;;;24.37;50.99;100175.50;4989571;28;20202;-66
2022/09/09 10:09:54;;;;;;;5.40;1.55;;;;;;;24.63;48.80;100174.00;4990418;28;20210;-66
2022/09/09 10:12:37;;;;;;;9.73;1.15;;;;;;;24.20;48.89;100161.06;4989210;28;20218;-66
2022/09/09 10:15:16;;;;;;;6.22;1.48;;;;;;;24.20;49.58;100166.50;4983978;28;20205;-66
2022/09/09 10:17:56;;;;;;;6.75;1.10;;;;;;;25.13;47.59;100162.31;4990997;28;20301;-66
2022/09/09 10:20:38;;;;;;;8.50;1.20;;;;;;;25.36;47.11;100158.53;4989792;28;20202;-66
2022/09/09 10:23:20;;;;;;;7.97;1.42;;;;;;;25.05;49.29;100163.56;4990383;28;20260;-67
2022/09/09 10:26:08;;;;;;;8.07;1.83;;;;;;;24.54;51.20;100159.22;4989714;28;20203;-66
2022/09/09 10:28:55;;;;;;;6.90;1.13;;;;;;;24.11;53.24;100159.84;4987341;28;20214;-67
2022/09/09 10:31:31;;;;;;;5.35;1.27;;;;;;;23.88;54.31;100151.84;4988711;28;20293;-66
2022/09/09 10:34:16;;;;;;;6.22;1.17;;;;;;;23.68;55.50;100157.69;4989605;28;20627;-67
2022/09/09 10:36:49;;;;;;;9.02;1.40;;;;;;;23.63;55.24;100150.31;4987583;28;20229;-66
2022/09/09 10:39:26;;;;;;;5.40;1.45;;;;;;;23.47;55.57;100144.81;4989991;28;20284;-67
2022/09/09 10:42:04;;;;;;;3.35;1.00;;;;;;;23.31;56.44;100157.16;4988622;28;20867;-67
2022/09/09 10:44:45;;;;;;;7.72;1.42;;;;;;;23.27;56.25;100153.31;4989580;28;20261;-66
2022/09/09 10:47:33;;;;;;;10.57;1.63;;;;;;;23.31;56.62;100150.97;4989970;28;20249;-67
2022/09/09 10:50:19;;;;;;;5.53;1.15;;;;;;;23.18;56.89;100152.03;4988502;28;20249;-67
2022/09/09 10:52:58;;;;;;;6.05;1.30;;;;;;;23.09;56.44;100150.75;4989282;28;20202;-67
2022/09/09 10:55:34;;;;;;;7.13;1.40;;;;;;;22.95;56.48;100147.50;4988933;28;20206;-67
2022/09/09 10:58:04;;;;;;;5.88;1.10;;;;;;;22.82;55.41;100147.72;4981708;28;20280;-66
2022/09/09 11:00:40;;;;;;;7.10;1.35;;;;;;;22.79;55.78;100140.91;4989433;28;20276;-66
2022/09/09 11:03:18;;;;;;;4.80;1.17;;;;;;;22.78;56.96;100141.97;4995550;28;20197;-66
2022/09/09 11:05:50;;;;;;;6.47;1.47;;;;;;;22.97;56.79;100128.31;4989854;28;20714;-66
2022/09/09 11:08:21;;;;;;;7.00;1.02;;;;;;;23.34;55.92;100124.25;4988541;28;20269;-67
2022/09/09 11:10:58;;;;;;;7.28;1.33;;;;;;;23.76;54.46;100126.69;4988414;28;20210;-66
2022/09/09 11:13:34;;;;;;;4.28;1.00;;;;;;;23.90;54.55;100119.94;4988390;28;20210;-68
2022/09/09 11:16:12;;;;;;;5.07;1.50;;;;;;;23.58;55.58;100120.41;4984819;28;20264;-67
2022/09/09 11:18:44;;;;;;;8.90;1.42;;;;;;;23.60;55.94;100115.59;4978726;28;20233;-67
2022/09/09 11:21:19;;;;;;;10.05;1.42;;;;;;;23.63;54.24;100130.53;4987614;28;20568;-66
2022/09/09 11:23:53;;;;;;;5.35;1.40;;;;;;;23.65;53.75;100127.59;4989744;28;20198;-67
2022/09/09 11:26:30;;;;;;;7.68;1.73;;;;;;;23.82;53.76;100123.84;4988488;28;20241;-67
2022/09/09 11:29:18;;;;;;;7.68;1.23;;;;;;;23.77;52.46;100128.34;4988258;28;20210;-67
2022/09/09 11:31:59;;;;;;;8.73;1.42;;;;;;;23.65;52.98;100122.19;4987617;28;20267;-67
2022/09/09 11:34:38;;;;;;;6.57;1.50;;;;;;;23.71;52.61;100119.31;4989431;28;20651;-67
2022/09/09 11:37:32;;;;;;;8.00;1.38;;;;;;;23.57;52.92;100123.38;4978404;28;20304;-67
2022/09/09 11:40:20;;;;;;;7.43;1.10;;;;;;;23.34;54.18;100124.25;4984948;28;20214;-67
2022/09/09 11:42:49;;;;;;;8.57;1.65;;;;;;;23.25;54.05;100123.78;4988360;28;20748;-67
2022/09/09 11:45:23;;;;;;;6.43;1.20;;;;;;;23.11;54.70;100135.94;4989294;28;20249;-67
2022/09/09 11:47:55;;;;;;;6.50;1.20;;;;;;;23.32;53.23;100137.19;4988512;28;20213;-66